Flight Track Log - Related Links

Times and Time Zones

All times are in EDT time to prevent confusion due to time zone crossing. See the XOJ552 flight status page for this flight to view local times or setup timezone preferences in your user account.

Time Position Orientation Groundspeed Altitude Reporting Facility
EDT Latitude Longitude Course Direction KTS MPH feet Rate Location/Type
Fri 03:22:56 PM 38.1167 -78.4667 218° Southwest 162 186 2,200  Level Potomac TRACON
Fri 03:23:58 PM 38.0711 -78.5117 218° Southwest 234 269 6,400 3,463 Climbing Washington Center
Fri 03:24:59 PM 38.0942 -78.5864 291° West 219 252 9,300 2,459 Climbing Washington Center
Fri 03:26:00 PM 38.1317 -78.6750 298° West 251 289 11,400 1,328 Climbing Washington Center
Fri 03:27:01 PM 38.1728 -78.7744 298° West 288 331 12,000 864 Climbing Washington Center
Fri 03:27:58 PM 38.2139 -78.8714 298° West 326 375 13,100 2,492 Climbing Washington Center
Fri 03:28:59 PM 38.2589 -78.9764 299° West 340 391 16,900 3,590 Climbing Washington Center
Fri 03:30:00 PM 38.3039 -79.0844 298° West 340 391 20,400 2,924 Climbing Washington Center
Fri 03:30:58 PM 38.3544 -79.2058 298° West 352 405 22,700 1,424 Climbing Washington Center
Fri 03:31:58 PM 38.4011 -79.3167 298° West 357 411 23,200 1,550 Climbing Washington Center
Fri 03:32:58 PM 38.4497 -79.4306 299° West 357 411 25,800 2,033 Climbing Washington Center
Fri 03:33:59 PM 38.4942 -79.5392 298° West 357 411 27,300 1,279 Climbing Washington Center
Fri 03:35:00 PM 38.5664 -79.6253 317° Northwest 363 418 28,400 2,269 Climbing Washington Center
Fri 03:35:58 PM 38.6531 -79.7097 323° Northwest 382 440 31,800 2,773 Climbing Washington Center
Fri 03:36:59 PM 38.7444 -79.7867 327° Northwest 388 447 33,900 1,623 Climbing Washington Center
Fri 03:38:00 PM 38.8092 -79.8997 306° West 382 440 35,100 1,748 Climbing Washington Center
Fri 03:38:42 PM 38.8314 -79.9769 290° West 355 409 36,900 2,250 Climbing Indianapolis Center
Fri 03:39:44 PM 38.8647 -80.0956 290° West 338 389 39,000 1,452 Climbing Indianapolis Center
Fri 03:40:46 PM 38.8906 -80.1947 289° West 337 388 39,900 484 Climbing Indianapolis Center
Fri 03:41:48 PM 38.9292 -80.3389 289° West 353 406 40,000 48 Climbing Indianapolis Center
Fri 03:42:51 PM 38.9625 -80.4619 289° West 363 418 40,000  Level Indianapolis Center
Fri 03:43:53 PM 38.9956 -80.5825 289° West 360 414 40,000  Level Indianapolis Center
Fri 03:44:55 PM 39.0272 -80.7025 289° West 356 410 40,000  Level Indianapolis Center
Fri 03:45:57 PM 39.0592 -80.8233 289° West 357 411 40,000  Level Indianapolis Center
Fri 03:46:59 PM 39.0911 -80.9442 289° West 358 412 40,000  Level Indianapolis Center
Fri 03:48:01 PM 39.1306 -81.0892 289° West 359 413 40,000  Level Indianapolis Center
Fri 03:49:03 PM 39.1767 -81.2067 297° West 367 422 40,000  Level Indianapolis Center
Fri 03:50:05 PM 39.2253 -81.3225 298° West 369 425 40,000  Level Indianapolis Center
Fri 03:51:07 PM 39.2719 -81.4392 297° West 371 427 40,000  Level Indianapolis Center
Fri 03:52:09 PM 39.3200 -81.5558 298° West 369 425 40,000  Level Indianapolis Center
Fri 03:53:11 PM 39.3686 -81.6725 298° West 370 426 40,000  Level Indianapolis Center
Fri 03:54:13 PM 39.4247 -81.8156 297° West 373 429 40,000  Level Indianapolis Center
Fri 03:55:15 PM 39.4733 -81.9356 298° West 376 433 40,000  Level Indianapolis Center
Fri 03:56:17 PM 39.5208 -82.0569 297° West 378 435 40,000  Level Indianapolis Center
Fri 03:57:19 PM 39.5733 -82.1875 298° West 378 435 40,000  Level Indianapolis Center
Fri 03:58:21 PM 39.6219 -82.3086 298° West 380 437 40,000  Level Indianapolis Center
Fri 03:59:23 PM 39.6703 -82.4297 297° West 379 436 40,000  Level Indianapolis Center
Fri 04:00:26 PM 39.7194 -82.5542 297° West 386 444 40,000  Level Indianapolis Center
Fri 04:01:28 PM 39.7681 -82.6789 297° West 387 445 40,000  Level Indianapolis Center
Fri 04:02:30 PM 39.8264 -82.8294 297° West 391 450 40,000  Level Indianapolis Center
Fri 04:03:32 PM 39.8753 -82.9556 297° West 393 452 40,000  Level Indianapolis Center
Fri 04:04:34 PM 39.9236 -83.0806 297° West 392 451 40,000  Level Indianapolis Center
Fri 04:05:36 PM 39.9722 -83.2058 297° West 393 452 40,000  Level Indianapolis Center
Fri 04:06:38 PM 40.0206 -83.3317 297° West 393 452 40,000  Level Indianapolis Center
Fri 04:07:40 PM 40.0783 -83.4839 296° West 397 457 40,000  Level Indianapolis Center
Fri 04:08:42 PM 40.1264 -83.6114 296° West 396 456 40,000  Level Indianapolis Center
Fri 04:09:44 PM 40.1750 -83.7397 296° West 397 457 40,000 -242 Level Indianapolis Center
Fri 04:10:46 PM 40.2233 -83.8694 296° West 398 458 39,500 -1,548 Descending Indianapolis Center
Fri 04:11:48 PM 40.2825 -84.0242 297° West 398 458 36,800 -2,516 Descending Indianapolis Center
Fri 04:12:50 PM 40.3483 -84.1383 307° West 391 450 34,300 -2,661 Descending Indianapolis Center
Fri 04:13:52 PM 40.4156 -84.2472 309° West 388 447 31,300 -2,758 Descending Indianapolis Center
Fri 04:14:54 PM 40.4831 -84.3633 307° West 398 458 28,600 -2,496 Descending Indianapolis Center
Fri 04:15:57 PM 40.5547 -84.4772 310° West 404 465 26,100 -2,112 Descending Indianapolis Center
Fri 04:16:59 PM 40.6244 -84.5917 309° West 388 447 24,200 -1,033 Descending Indianapolis Center
Fri 04:17:59 PM 40.6919 -84.7058 308° West 376 433 24,000 -98 Descending Chicago Center
Fri 04:19:01 PM 40.7567 -84.8122 309° West 373 429 24,000 -339 Level Chicago Center
Fri 04:20:03 PM 40.8206 -84.9175 309° West 371 427 23,300 -823 Descending Chicago Center
Fri 04:21:05 PM 40.8831 -85.0247 308° West 368 423 22,300 -629 Descending Chicago Center
Fri 04:22:07 PM 40.9456 -85.1286 309° West 364 419 22,000 -871 Descending Chicago Center
Fri 04:23:09 PM 41.0208 -85.2497 310° West 357 411 20,500 -1,645 Descending Chicago Center
Fri 04:24:11 PM 41.0872 -85.3522 311° West 364 419 18,600 -1,887 Descending Chicago Center
Fri 04:25:13 PM 41.1531 -85.4522 311° West 360 414 16,600 -1,935 Descending Chicago Center
Fri 04:26:15 PM 41.2169 -85.5517 311° West 354 407 14,600 -1,935 Descending Chicago Center
Fri 04:27:17 PM 41.2797 -85.6467 311° West 344 396 12,600 -1,790 Descending Chicago Center
Fri 04:28:19 PM 41.3383 -85.7378 311° West 328 377 10,900 -1,694 Descending Chicago Center
Fri 04:29:21 PM 41.4044 -85.8144 319° Northwest 265 305 9,100 -1,296 Descending Chicago Center
Fri 04:30:24 PM 41.4653 -85.8675 327° Northwest 261 300 8,200 -1,392 Descending Chicago Center
Fri 04:31:26 PM 41.5250 -85.9219 326° Northwest 260 299 6,200 -1,790 Descending Chicago Center
Fri 04:32:28 PM 41.5850 -85.9750 327° Northwest 259 298 4,500 -1,065 Descending Chicago Center
Fri 04:33:30 PM 41.6411 -86.0264 326° Northwest 253 291 4,000 -242 Descending Chicago Center
Fri 04:34:32 PM 41.6894 -86.0797 321° Northwest 249 287 4,000 -145 Level Chicago Center
Fri 04:35:34 PM 41.7058 -86.1458 288° West 209 241 3,700 -871 Descending Chicago Center
Fri 04:36:36 PM 41.7058 -86.2244 270° West 186 214 2,200 -1,065 Descending Chicago Center
Fri 04:37:38 PM 41.7044 -86.2639 267° West 158 182 1,500 -677 Descending Chicago Center
Fri 04:39:00 PM 41.7000 -86.3167 304° West  Level FlightAware Approximate
Fri 04:46:00 PM 41.7082 -86.3173 304° West  Level Estimated
Fri 04:47:00 PM 41.7082 -86.3173 304° West  Level Estimated

Login

Don't have an account? Register now (free) for customized features, flight alerts, and more!